Time;durP1;ratioP1;P1;durP2;ratioP2;P2;SDS_P1;SDS_P2;PMS_P1;PMS_P2;Temp;Humidity;BMP_temperature;BMP_pressure;BME280_temperature;BME280_humidity;BME280_pressure;Samples;Min_cycle;Max_cycle;Signal;HPM_P1;HPM_P2
2022/12/30 00:01:25;;;;;;;;;;;;;;;-10.29;61.92;97573.06;6294817;28;20057;-68
2022/12/30 00:04:31;;;;;;;;;;;;;;;-10.28;61.66;97576.44;6295397;28;19916;-66
2022/12/30 00:07:34;;;;;;;;;;;;;;;-10.27;62.01;97568.03;6299042;28;20305;-66
2022/12/30 00:10:43;;;;;;;;;;;;;;;-10.26;61.82;97570.56;6299586;28;19920;-67
2022/12/30 00:34:09;;;;;;;;;;;;;;;-10.37;61.91;97560.94;6299007;28;20010;-67
2022/12/30 00:37:11;;;;;;;;;;;;;;;-10.33;61.78;97557.66;6298544;28;19927;-67
2022/12/30 00:40:14;;;;;;;;;;;;;;;-10.31;61.99;97546.69;6298795;28;19920;-67
2022/12/30 00:43:17;;;;;;;;;;;;;;;-10.32;62.02;97549.22;6298713;28;19920;-67
2022/12/30 00:46:23;;;;;;;;;;;;;;;-10.37;61.90;97545.69;6298283;28;20286;-68
2022/12/30 00:56:12;;;;;;;;;;;;;;;-10.34;62.06;97535.59;6298503;28;20393;-67
2022/12/30 00:59:13;;;;;;;;;;;;;;;-10.36;61.85;97539.75;6298001;28;19920;-68
2022/12/30 01:02:18;;;;;;;;;;;;;;;-10.40;62.03;97537.13;6298299;28;19920;-67
2022/12/30 01:05:22;;;;;;;;;;;;;;;-10.38;62.00;97543.97;6298431;28;20413;-67
2022/12/30 01:08:27;;;;;;;;;;;;;;;-10.33;62.22;97542.38;6298084;28;20022;-69
2022/12/30 01:11:30;;;;;;;;;;;;;;;-10.28;62.00;97545.91;6298339;28;20289;-68
2022/12/30 01:14:31;;;;;;;;;;;;;;;-10.28;62.04;97541.69;6297138;28;19927;-68
2022/12/30 01:17:34;;;;;;;;;;;;;;;-10.28;62.20;97541.69;6297974;28;19921;-67
2022/12/30 01:20:40;;;;;;;;;;;;;;;-10.28;61.85;97543.38;6297755;28;19927;-67
2022/12/30 01:23:43;;;;;;;;;;;;;;;-10.33;61.75;97537.28;6297864;28;20397;-67
2022/12/30 01:26:47;;;;;;;;;;;;;;;-10.39;61.87;97535.44;6297633;28;19920;-67
2022/12/30 01:29:53;;;;;;;;;;;;;;;-10.40;61.93;97541.38;6297657;28;19928;-67
2022/12/30 01:32:57;;;;;;;;;;;;;;;-10.38;62.11;97538.88;6297584;28;19920;-67
2022/12/30 01:36:00;;;;;;;;;;;;;;;-10.41;62.18;97549.81;6297175;28;19927;-67
2022/12/30 01:39:03;;;;;;;;;;;;;;;-10.45;62.11;97548.84;6297502;28;20425;-67
2022/12/30 01:42:16;;;;;;;;;;;;;;;-10.52;62.20;97541.88;6297373;28;19920;-67
2022/12/30 01:45:21;;;;;;;;;;;;;;;-10.46;62.26;97556.47;6297409;28;19924;-67
2022/12/30 01:48:24;;;;;;;;;;;;;;;-10.39;62.32;97548.16;6296424;28;19953;-68
2022/12/30 01:51:30;;;;;;;;;;;;;;;-10.34;62.15;97555.94;6296703;28;20062;-67
2022/12/30 01:54:37;;;;;;;;;;;;;;;-10.38;62.19;97551.59;6297092;28;19920;-67
2022/12/30 01:57:46;;;;;;;;;;;;;;;-10.45;61.89;97550.53;6296991;28;19920;-67
2022/12/30 02:00:47;;;;;;;;;;;;;;;-10.47;62.09;97554.75;6296670;28;19920;-67
2022/12/30 02:03:57;;;;;;;;;;;;;;;-10.46;62.17;97557.31;6295623;28;20398;-67
2022/12/30 02:07:23;;;;;;;;;;;;;;;-10.42;62.27;97553.16;6296713;28;19920;-67
2022/12/30 02:10:28;;;;;;;;;;;;;;;-10.40;62.15;97552.41;6296019;28;19927;-67
2022/12/30 02:13:31;;;;;;;;;;;;;;;-10.38;62.10;97557.53;6296189;28;20417;-67
2022/12/30 02:16:40;;;;;;;;;;;;;;;-10.37;62.17;97553.31;6296144;28;19916;-67
2022/12/30 02:19:41;;;;;;;;;;;;;;;-10.43;62.18;97547.22;6296270;28;19924;-67
2022/12/30 02:22:49;;;;;;;;;;;;;;;-10.46;62.04;97552.22;6296187;28;19915;-67
2022/12/30 02:26:08;;;;;;;;;;;;;;;-10.46;62.12;97552.22;6296114;28;19920;-67
2022/12/30 02:29:12;;;;;;;;;;;;;;;-10.45;62.27;97561.56;6295434;28;20318;-67
2022/12/30 02:32:24;;;;;;;;;;;;;;;-10.41;62.30;97560.84;6295650;28;19971;-67
2022/12/30 02:35:45;;;;;;;;;;;;;;;-10.35;62.10;97549.13;6295657;28;19920;-68
2022/12/30 02:38:54;;;;;;;;;;;;;;;-10.37;62.03;97555.84;6285458;28;19924;-67
2022/12/30 02:45:27;;;;;;;;;;;;;;;-10.47;62.13;97555.59;6295968;28;19920;-67
2022/12/30 02:48:31;;;;;;;;;;;;;;;-10.47;62.32;97545.44;6295539;28;20247;-67
2022/12/30 02:54:56;;;;;;;;;;;;;;;-10.46;62.36;97543.75;6295014;28;20062;-67
2022/12/30 02:58:00;;;;;;;;;;;;;;;-10.46;62.24;97542.06;6295182;28;20453;-68
2022/12/30 03:04:35;;;;;;;;;;;;;;;-10.49;62.36;97536.03;6294941;28;19921;-67
2022/12/30 03:07:48;;;;;;;;;;;;;;;-10.49;62.19;97536.88;6295775;28;19924;-67
2022/12/30 03:11:18;;;;;;;;;;;;;;;-10.52;62.41;97535.94;6295454;28;19931;-67
2022/12/30 03:14:26;;;;;;;;;;;;;;;-10.53;62.42;97542.72;6294575;28;19930;-67
2022/12/30 03:17:32;;;;;;;;;;;;;;;-10.55;62.27;97557.06;6295154;28;20394;-68
2022/12/30 03:20:41;;;;;;;;;;;;;;;-10.52;62.36;97552.06;6295531;28;19928;-67
2022/12/30 03:27:09;;;;;;;;;;;;;;;-10.43;62.28;97544.69;6295151;28;19927;-67
2022/12/30 03:30:13;;;;;;;;;;;;;;;-10.43;62.27;97542.13;6294890;28;19926;-67
2022/12/30 03:33:18;;;;;;;;;;;;;;;-10.49;62.14;97541.97;6295039;28;19927;-67
2022/12/30 03:36:22;;;;;;;;;;;;;;;-10.54;62.07;97540.97;6295001;28;19920;-68
2022/12/30 03:39:35;;;;;;;;;;;;;;;-10.58;62.31;97540.88;6294505;28;20026;-68
2022/12/30 03:42:36;;;;;;;;;;;;;;;-10.53;62.48;97545.25;6300230;28;19923;-67
2022/12/30 03:45:39;;;;;;;;;;;;;;;-10.48;62.38;97543.69;6299013;28;19927;-68
2022/12/30 03:48:42;;;;;;;;;;;;;;;-10.44;62.50;97545.50;6300033;28;20050;-67
2022/12/30 03:51:43;;;;;;;;;;;;;;;-10.44;62.28;97542.97;6299224;28;19921;-67
2022/12/30 03:54:44;;;;;;;;;;;;;;;-10.41;62.23;97545.59;6299237;28;19931;-67
2022/12/30 03:57:45;;;;;;;;;;;;;;;-10.37;62.24;97550.75;6298917;28;19921;-67
2022/12/30 04:00:49;;;;;;;;;;;;;;;-10.36;62.10;97545.69;6299041;28;20007;-67
2022/12/30 04:03:51;;;;;;;;;;;;;;;-10.37;62.03;97545.69;6299316;28;19920;-68
2022/12/30 04:06:52;;;;;;;;;;;;;;;-10.39;62.34;97545.63;6298694;28;19920;-67
2022/12/30 04:09:55;;;;;;;;;;;;;;;-10.37;62.07;97548.22;6297835;28;19920;-68
2022/12/30 04:12:57;;;;;;;;;;;;;;;-10.37;62.17;97550.75;6299343;28;19920;-67
2022/12/30 04:16:02;;;;;;;;;;;;;;;-10.40;62.11;97554.09;6299573;28;19924;-67
2022/12/30 04:19:03;;;;;;;;;;;;;;;-10.36;62.25;97560.13;6298988;28;19935;-67
2022/12/30 04:22:04;;;;;;;;;;;;;;;-10.35;62.34;97566.94;6298780;28;19923;-67
2022/12/30 04:25:05;;;;;;;;;;;;;;;-10.40;62.15;97567.66;6298767;28;19920;-68
2022/12/30 04:28:09;;;;;;;;;;;;;;;-10.35;62.25;97569.50;6299246;28;20006;-68
2022/12/30 04:31:10;;;;;;;;;;;;;;;-10.33;62.22;97570.38;6298632;28;19927;-67
2022/12/30 04:34:14;;;;;;;;;;;;;;;-10.30;62.31;97567.91;6299114;28;19927;-67
2022/12/30 04:37:18;;;;;;;;;;;;;;;-10.22;62.26;97572.38;6299142;28;19920;-67
2022/12/30 04:40:19;;;;;;;;;;;;;;;-10.16;62.30;97566.59;6298241;28;20007;-67
2022/12/30 04:43:25;;;;;;;;;;;;;;;-10.06;62.21;97571.09;6298768;28;19921;-67
2022/12/30 04:46:28;;;;;;;;;;;;;;;-10.01;62.20;97577.19;6298691;28;20397;-67
2022/12/30 04:49:32;;;;;;;;;;;;;;;-9.97;61.93;97573.03;6298569;28;19920;-67
2022/12/30 04:52:35;;;;;;;;;;;;;;;-9.96;62.10;97565.44;6297828;28;20417;-68
2022/12/30 04:55:38;;;;;;;;;;;;;;;-9.94;61.91;97563.78;6298150;28;19916;-67
2022/12/30 04:58:41;;;;;;;;;;;;;;;-9.95;62.01;97556.13;6297674;28;19927;-68
2022/12/30 05:01:45;;;;;;;;;;;;;;;-9.93;62.01;97559.56;6298326;28;20005;-68
2022/12/30 05:04:46;;;;;;;;;;;;;;;-9.88;61.99;97562.22;6298181;28;19962;-68
2022/12/30 05:07:47;;;;;;;;;;;;;;;-9.82;61.74;97563.25;6297698;28;19927;-68
2022/12/30 05:10:51;;;;;;;;;;;;;;;-9.81;61.96;97566.66;6297547;28;20401;-68
2022/12/30 05:13:57;;;;;;;;;;;;;;;-9.67;62.05;97561.91;6297538;28;19923;-67
2022/12/30 05:16:58;;;;;;;;;;;;;;;-9.56;61.43;97560.50;6297513;28;20009;-66
2022/12/30 05:20:02;;;;;;;;;;;;;;;-9.51;61.43;97556.34;6297052;28;20468;-68
2022/12/30 05:26:13;;;;;;;;;;;;;;;-9.44;61.50;97554.84;6297090;28;19920;-66
2022/12/30 05:26:25;;;;;;;;;;;;;;;-9.37;61.79;97569.44;6297129;28;20312;-67
2022/12/30 05:29:28;;;;;;;;;;;;;;;-9.32;61.42;97565.31;6297354;28;19920;-67
2022/12/30 05:32:30;;;;;;;;;;;;;;;-9.29;61.41;97563.69;6297196;28;19920;-68
2022/12/30 05:35:31;;;;;;;;;;;;;;;-9.25;61.37;97564.66;6296368;28;20392;-68
2022/12/30 05:38:36;;;;;;;;;;;;;;;-9.19;61.38;97577.53;6297008;28;19920;-69
2022/12/30 05:41:45;;;;;;;;;;;;;;;-9.21;61.46;97568.97;6295827;28;19920;-68
2022/12/30 05:44:51;;;;;;;;;;;;;;;-9.18;61.52;97576.69;6297072;28;19924;-69
2022/12/30 05:47:52;;;;;;;;;;;;;;;-9.15;61.39;97574.22;6296704;28;19920;-71
2022/12/30 05:50:55;;;;;;;;;;;;;;;-9.09;61.07;97579.47;6295066;28;20027;-70
2022/12/30 05:54:03;;;;;;;;;;;;;;;-9.02;60.90;97569.44;6296722;28;20292;-69
2022/12/30 05:57:10;;;;;;;;;;;;;;;-8.91;61.32;97573.09;6296427;28;19920;-67
2022/12/30 06:00:14;;;;;;;;;;;;;;;-8.81;61.30;97577.53;6296116;28;20458;-67
2022/12/30 06:03:17;;;;;;;;;;;;;;;-8.77;60.72;97581.91;6295990;28;19920;-67
2022/12/30 06:06:19;;;;;;;;;;;;;;;-8.68;61.00;97577.00;6296153;28;20312;-67
2022/12/30 06:09:20;;;;;;;;;;;;;;;-8.56;60.58;97580.63;6295877;28;20051;-67
2022/12/30 06:12:23;;;;;;;;;;;;;;;-8.46;60.93;97577.47;6296244;28;19920;-68
2022/12/30 06:15:26;;;;;;;;;;;;;;;-8.35;60.58;97575.94;6296061;28;19954;-68
2022/12/30 06:18:27;;;;;;;;;;;;;;;-8.28;60.11;97577.78;6296317;28;19920;-68
2022/12/30 06:21:42;;;;;;;;;;;;;;;-8.26;60.24;97586.34;6295919;28;19920;-69
2022/12/30 06:24:53;;;;;;;;;;;;;;;-8.23;60.21;97588.97;6295465;28;19920;-68
2022/12/30 06:27:54;;;;;;;;;;;;;;;-8.20;60.46;97586.47;6295379;28;19920;-67
2022/12/30 06:30:59;;;;;;;;;;;;;;;-8.19;60.00;97583.06;6296009;28;19928;-67
2022/12/30 06:34:03;;;;;;;;;;;;;;;-8.17;60.00;97573.75;6296350;28;19920;-68
2022/12/30 06:37:08;;;;;;;;;;;;;;;-8.20;60.44;97583.91;6296031;28;19920;-67
2022/12/30 06:40:14;;;;;;;;;;;;;;;-8.22;60.16;97588.13;6295857;28;19920;-69
2022/12/30 06:43:20;;;;;;;;;;;;;;;-8.13;60.22;97588.28;6296004;28;19959;-68
2022/12/30 06:46:24;;;;;;;;;;;;;;;-8.04;60.15;97591.88;6295795;28;19920;-68
2022/12/30 06:49:27;;;;;;;;;;;;;;;-7.94;59.91;97591.22;6295545;28;19921;-67
2022/12/30 06:52:31;;;;;;;;;;;;;;;-7.81;60.05;97595.75;6295764;28;19920;-68
2022/12/30 06:55:32;;;;;;;;;;;;;;;-7.63;59.88;97589.25;6295528;28;19916;-67
2022/12/30 06:58:35;;;;;;;;;;;;;;;-7.48;58.87;97585.25;6294923;28;19920;-68
2022/12/30 07:01:38;;;;;;;;;;;;;;;-7.36;59.39;97587.16;6295543;28;19920;-68
2022/12/30 07:04:41;;;;;;;;;;;;;;;-7.32;58.64;97588.94;6295525;28;20389;-67
2022/12/30 07:07:42;;;;;;;;;;;;;;;-7.23;58.46;97596.75;6295418;28;19921;-67
2022/12/30 07:10:47;;;;;;;;;;;;;;;-7.19;58.31;97589.13;6295091;28;20430;-67
2022/12/30 07:13:48;;;;;;;;;;;;;;;-7.13;58.65;97586.66;6295614;28;19920;-66
2022/12/30 07:16:53;;;;;;;;;;;;;;;-6.99;57.78;97580.09;6300252;28;20343;-68
2022/12/30 07:19:54;;;;;;;;;;;;;;;-6.85;57.80;97587.94;6300319;28;19920;-67
2022/12/30 07:22:57;;;;;;;;;;;;;;;-6.78;57.44;97584.66;6298950;28;19924;-67
2022/12/30 07:25:59;;;;;;;;;;;;;;;-6.74;57.70;97585.53;6299847;28;19920;-67
2022/12/30 07:29:02;;;;;;;;;;;;;;;-6.62;57.27;97580.63;6299969;28;20386;-68
2022/12/30 07:32:10;;;;;;;;;;;;;;;-6.63;57.29;97576.31;6300212;28;20378;-68
2022/12/30 07:35:11;;;;;;;;;;;;;;;-6.62;57.91;97570.38;6299800;28;20324;-67
2022/12/30 07:38:14;;;;;;;;;;;;;;;-6.69;57.25;97571.97;6299933;28;19920;-67
2022/12/30 07:41:15;;;;;;;;;;;;;;;-6.62;58.00;97570.38;6298859;28;19924;-68
2022/12/30 07:44:19;;;;;;;;;;;;;;;-6.33;57.55;97568.19;6299740;28;19916;-67
2022/12/30 07:47:25;;;;;;;;;;;;;;;-5.96;57.26;97568.63;6299279;28;19946;-67
2022/12/30 07:50:28;;;;;;;;;;;;;;;-5.31;56.63;97570.97;6299542;28;19927;-67
2022/12/30 07:53:34;;;;;;;;;;;;;;;-4.70;55.31;97560.28;6299390;28;19931;-67
2022/12/30 07:56:42;;;;;;;;;;;;;;;-4.24;53.93;97555.41;6299781;28;20177;-68
2022/12/30 07:59:45;;;;;;;;;;;;;;;-4.09;53.27;97549.47;6298907;28;20382;-67
2022/12/30 08:02:50;;;;;;;;;;;;;;;-4.04;52.07;97557.19;6299381;28;19920;-69
2022/12/30 08:05:53;;;;;;;;;;;;;;;-4.11;52.51;97557.16;6299444;28;20404;-69
2022/12/30 08:08:54;;;;;;;;;;;;;;;-4.25;52.69;97558.81;6299226;28;19920;-68
2022/12/30 08:11:55;;;;;;;;;;;;;;;-4.15;53.08;97545.16;6298696;28;19921;-67
2022/12/30 08:15:01;;;;;;;;;;;;;;;-2.98;52.37;97553.06;6298722;28;19931;-67
2022/12/30 08:18:04;;;;;;;;;;;;;;;-1.25;49.52;97541.19;6298632;28;19927;-68
2022/12/30 08:21:06;;;;;;;;;;;;;;;0.29;46.12;97546.50;6298161;28;19923;-68
2022/12/30 08:24:08;;;;;;;;;;;;;;;1.35;44.23;97553.50;6298959;28;19927;-68
2022/12/30 08:27:09;;;;;;;;;;;;;;;1.97;42.04;97554.97;6296839;28;20010;-69
2022/12/30 08:30:14;;;;;;;;;;;;;;;2.47;42.49;97540.09;6298691;28;20389;-68
2022/12/30 08:33:15;;;;;;;;;;;;;;;2.83;42.35;97551.41;6298735;28;20005;-68
2022/12/30 08:36:24;;;;;;;;;;;;;;;2.56;41.83;97547.66;6297360;28;19982;-69
2022/12/30 08:39:30;;;;;;;;;;;;;;;1.85;41.29;97548.28;6298351;28;19920;-68
2022/12/30 08:42:36;;;;;;;;;;;;;;;0.86;44.25;97548.28;6298624;28;20433;-69
2022/12/30 08:45:37;;;;;;;;;;;;;;;0.24;46.09;97553.47;6296355;28;19928;-69
2022/12/30 08:48:40;;;;;;;;;;;;;;;-0.17;46.07;97556.56;6297624;28;19960;-68
2022/12/30 08:51:46;;;;;;;;;;;;;;;-0.09;45.75;97549.56;6298057;28;20414;-68
2022/12/30 08:54:49;;;;;;;;;;;;;;;-0.39;45.87;97555.97;6297867;28;20010;-68
2022/12/30 08:57:52;;;;;;;;;;;;;;;-0.95;48.08;97551.28;6297225;28;19920;-68
2022/12/30 09:00:54;;;;;;;;;;;;;;;-1.25;47.88;97561.84;6295700;28;19951;-67
2022/12/30 09:03:57;;;;;;;;;;;;;;;-0.94;47.78;97557.31;6297617;28;19920;-67
2022/12/30 09:06:58;;;;;;;;;;;;;;;-0.11;45.41;97551.34;6297439;28;19920;-69
2022/12/30 09:10:03;;;;;;;;;;;;;;;0.39;45.19;97548.06;6297812;28;19977;-69
2022/12/30 09:13:05;;;;;;;;;;;;;;;0.78;44.65;97543.22;6297776;28;20009;-68
2022/12/30 09:16:07;;;;;;;;;;;;;;;1.29;42.90;97551.00;6297428;28;20429;-68
2022/12/30 09:19:09;;;;;;;;;;;;;;;2.11;40.41;97555.53;6297463;28;20397;-68
2022/12/30 09:22:09;;;;;;;;;;;;;;;2.68;39.46;97536.97;6297098;28;19924;-68
2022/12/30 09:25:13;;;;;;;;;;;;;;;2.75;40.22;97536.88;6297473;28;20405;-68
2022/12/30 09:28:16;;;;;;;;;;;;;;;1.64;39.72;97541.75;6297319;28;19927;-69
2022/12/30 09:31:20;;;;;;;;;;;;;;;-0.38;43.04;97531.81;6297292;28;19920;-69
2022/12/30 09:34:25;;;;;;;;;;;;;;;-2.42;46.67;97548.69;6297619;28;19963;-68
2022/12/30 09:37:29;;;;;;;;;;;;;;;-3.92;49.38;97539.22;6297328;28;19981;-67
2022/12/30 09:40:32;;;;;;;;;;;;;;;-4.87;52.29;97547.34;6296990;28;19916;-69
2022/12/30 09:43:52;;;;;;;;;;;;;;;-5.64;52.89;97550.97;6297085;28;20290;-69
2022/12/30 09:47:22;;;;;;;;;;;;;;;-6.24;53.18;97554.63;6296762;28;19920;-69
2022/12/30 09:50:31;;;;;;;;;;;;;;;-6.77;54.40;97551.38;6293759;28;19921;-67
2022/12/30 09:53:32;;;;;;;;;;;;;;;-7.15;54.11;97562.78;6296403;28;19920;-69
2022/12/30 09:56:36;;;;;;;;;;;;;;;-7.41;54.20;97559.81;6296764;28;19924;-68
2022/12/30 09:59:43;;;;;;;;;;;;;;;-7.66;55.25;97558.53;6296303;28;20361;-69
2022/12/30 10:02:47;;;;;;;;;;;;;;;-7.84;55.63;97565.03;6296330;28;19920;-69
2022/12/30 10:06:17;;;;;;;;;;;;;;;-8.04;54.97;97561.22;6296829;28;19974;-69
2022/12/30 10:09:39;;;;;;;;;;;;;;;-8.30;55.31;97559.03;6273782;28;19924;-68
2022/12/30 10:12:43;;;;;;;;;;;;;;;-8.39;54.64;97561.44;6296198;28;19927;-67
2022/12/30 10:15:55;;;;;;;;;;;;;;;-8.53;54.97;97565.38;6296503;28;19927;-69
2022/12/30 10:19:04;;;;;;;;;;;;;;;-8.59;54.79;97561.88;6296375;28;19928;-68
2022/12/30 10:22:13;;;;;;;;;;;;;;;-8.51;54.88;97558.63;6296062;28;20309;-69
2022/12/30 10:25:35;;;;;;;;;;;;;;;-8.49;54.01;97556.94;6296423;28;20389;-68
2022/12/30 10:28:38;;;;;;;;;;;;;;;-8.50;54.25;97560.34;6296081;28;19920;-69
2022/12/30 10:31:43;;;;;;;;;;;;;;;-8.49;54.35;97559.50;6295782;28;19927;-68
2022/12/30 10:34:47;;;;;;;;;;;;;;;-8.49;54.32;97562.06;6296091;28;19920;-67
2022/12/30 10:37:57;;;;;;;;;;;;;;;-8.44;54.98;97570.69;6293987;28;19982;-69
2022/12/30 10:41:20;;;;;;;;;;;;;;;-8.46;54.29;97577.47;6295188;28;19920;-68
2022/12/30 10:44:28;;;;;;;;;;;;;;;-8.56;54.51;97585.75;6295432;28;19920;-69
2022/12/30 10:47:51;;;;;;;;;;;;;;;-8.57;54.59;97578.94;6296096;28;19920;-68
2022/12/30 10:50:58;;;;;;;;;;;;;;;-8.59;54.48;97592.50;6295434;28;20169;-68
2022/12/30 10:54:04;;;;;;;;;;;;;;;-8.62;54.32;97587.31;6296226;28;19920;-68
2022/12/30 10:57:12;;;;;;;;;;;;;;;-8.59;54.91;97592.50;6294841;28;20385;-68
2022/12/30 11:00:14;;;;;;;;;;;;;;;-8.52;55.35;97592.63;6294952;28;20302;-68
2022/12/30 11:03:26;;;;;;;;;;;;;;;-8.52;54.66;97588.41;6295534;28;19920;-67
2022/12/30 11:06:29;;;;;;;;;;;;;;;-8.50;54.96;97590.97;6295686;28;19924;-68
2022/12/30 11:09:30;;;;;;;;;;;;;;;-8.54;55.21;97595.16;6294800;28;20413;-68
2022/12/30 11:15:56;;;;;;;;;;;;;;;-8.67;55.35;97588.91;6295410;28;19999;-68
2022/12/30 11:19:01;;;;;;;;;;;;;;;-8.71;55.39;97589.69;6295596;28;19927;-69
2022/12/30 11:22:03;;;;;;;;;;;;;;;-8.69;55.30;97590.59;6295080;28;19920;-68
2022/12/30 11:25:15;;;;;;;;;;;;;;;-8.75;55.67;97590.44;6295177;28;19927;-68
2022/12/30 11:28:20;;;;;;;;;;;;;;;-8.87;55.99;97585.06;6295053;28;19920;-68
2022/12/30 11:31:29;;;;;;;;;;;;;;;-8.94;55.88;97598.53;6294355;28;20400;-68
2022/12/30 11:34:34;;;;;;;;;;;;;;;-8.99;56.35;97605.19;6295464;28;19920;-68
2022/12/30 11:37:36;;;;;;;;;;;;;;;-9.07;56.19;97598.22;6295259;28;20512;-69
2022/12/30 11:40:37;;;;;;;;;;;;;;;-9.10;56.45;97598.13;6295116;28;19920;-68
2022/12/30 11:43:38;;;;;;;;;;;;;;;-9.20;56.27;97606.38;6295293;28;20024;-69
2022/12/30 11:46:44;;;;;;;;;;;;;;;-9.31;56.60;97603.59;6277316;28;20042;-68
2022/12/30 11:49:50;;;;;;;;;;;;;;;-9.40;56.63;97608.44;6295036;28;19920;-69
2022/12/30 11:52:59;;;;;;;;;;;;;;;-9.46;56.89;97602.34;6294988;28;19920;-68
2022/12/30 11:56:03;;;;;;;;;;;;;;;-9.63;56.89;97605.31;6294968;28;19923;-68
2022/12/30 11:59:08;;;;;;;;;;;;;;;-9.77;57.16;97597.31;6294613;28;19982;-68
2022/12/30 12:02:21;;;;;;;;;;;;;;;-9.85;57.18;97597.94;6297635;28;19934;-68
2022/12/30 12:05:22;;;;;;;;;;;;;;;-9.94;57.50;97596.88;6299368;28;20278;-69
2022/12/30 12:08:29;;;;;;;;;;;;;;;-9.94;57.80;97596.88;6299097;28;20018;-69
2022/12/30 12:11:36;;;;;;;;;;;;;;;-9.95;57.84;97600.25;6299205;28;19955;-68
2022/12/30 12:14:53;;;;;;;;;;;;;;;-9.96;57.59;97598.53;6299266;28;19921;-67
2022/12/30 12:17:54;;;;;;;;;;;;;;;-10.01;57.57;97605.19;6298102;28;19927;-68
2022/12/30 12:21:14;;;;;;;;;;;;;;;-10.05;57.74;97600.81;6299414;28;19920;-68
2022/12/30 12:24:26;;;;;;;;;;;;;;;-10.06;57.90;97596.56;6299128;28;19920;-69
2022/12/30 12:27:27;;;;;;;;;;;;;;;-10.04;57.97;97602.56;6298937;28;19920;-68
2022/12/30 12:30:36;;;;;;;;;;;;;;;-9.97;57.92;97604.44;6298909;28;20305;-68
2022/12/30 12:33:40;;;;;;;;;;;;;;;-10.03;58.05;97608.50;6299004;28;19920;-68
2022/12/30 12:36:56;;;;;;;;;;;;;;;-10.02;58.08;97611.09;6298953;28;19920;-68
2022/12/30 12:40:12;;;;;;;;;;;;;;;-9.99;58.16;97611.19;6298801;28;19927;-68
2022/12/30 12:43:42;;;;;;;;;;;;;;;-9.99;58.07;97616.28;6298849;28;20344;-69
2022/12/30 12:47:02;;;;;;;;;;;;;;;-10.10;58.03;97615.13;6295678;28;19936;-67
2022/12/30 12:50:11;;;;;;;;;;;;;;;-10.19;58.07;97627.56;6298323;28;19946;-68
2022/12/30 12:53:24;;;;;;;;;;;;;;;-10.20;58.20;97628.41;6298355;28;19927;-68
2022/12/30 12:56:28;;;;;;;;;;;;;;;-10.31;58.22;97632.34;6298212;28;19943;-68
2022/12/30 12:59:47;;;;;;;;;;;;;;;-10.44;58.58;97628.59;6298176;28;19920;-68
2022/12/30 13:02:55;;;;;;;;;;;;;;;-10.45;58.58;97627.72;6298107;28;20397;-68
2022/12/30 13:06:04;;;;;;;;;;;;;;;-10.37;58.44;97627.09;6297362;28;19927;-68
2022/12/30 13:09:07;;;;;;;;;;;;;;;-10.34;58.46;97628.03;6298156;28;19920;-67
2022/12/30 13:12:19;;;;;;;;;;;;;;;-10.34;58.40;97624.63;6297449;28;19920;-68
2022/12/30 13:15:26;;;;;;;;;;;;;;;-10.34;58.31;97622.09;6297574;28;20386;-68
2022/12/30 13:18:30;;;;;;;;;;;;;;;-10.35;58.62;97625.47;6297590;28;19921;-68
2022/12/30 13:21:33;;;;;;;;;;;;;;;-10.40;58.50;97628.72;6297779;28;19926;-68
2022/12/30 13:24:41;;;;;;;;;;;;;;;-10.46;58.71;97623.47;6297370;28;19916;-68
2022/12/30 13:27:44;;;;;;;;;;;;;;;-10.53;59.08;97626.66;6297286;28;19920;-68
2022/12/30 13:30:56;;;;;;;;;;;;;;;-10.53;58.89;97631.75;6297247;28;19920;-68
2022/12/30 13:34:10;;;;;;;;;;;;;;;-10.54;58.97;97624.91;6297179;28;19920;-69
2022/12/30 13:37:19;;;;;;;;;;;;;;;-10.59;59.09;97636.63;6297223;28;19920;-69
2022/12/30 13:40:26;;;;;;;;;;;;;;;-10.58;59.26;97633.28;6296832;28;19930;-69
2022/12/30 13:43:27;;;;;;;;;;;;;;;-10.60;59.22;97640.00;6296398;28;19999;-69
2022/12/30 13:46:31;;;;;;;;;;;;;;;-10.61;59.38;97635.72;6297156;28;20294;-69
2022/12/30 13:49:35;;;;;;;;;;;;;;;-10.57;59.13;97637.53;6296987;28;20015;-68
2022/12/30 13:52:43;;;;;;;;;;;;;;;-10.73;59.25;97640.44;6297087;28;20389;-67
2022/12/30 13:55:49;;;;;;;;;;;;;;;-10.88;59.54;97639.16;6295672;28;19938;-68
2022/12/30 13:58:55;;;;;;;;;;;;;;;-10.87;59.54;97633.25;6296889;28;19981;-68
2022/12/30 14:02:14;;;;;;;;;;;;;;;-10.86;59.63;97627.34;6296350;28;19927;-68
2022/12/30 14:05:31;;;;;;;;;;;;;;;-10.92;59.36;97637.34;6296591;28;20382;-68
2022/12/30 14:08:43;;;;;;;;;;;;;;;-10.92;59.35;97632.25;6296378;28;19920;-68
2022/12/30 14:12:05;;;;;;;;;;;;;;;-10.96;59.36;97639.72;6296170;28;19959;-69
2022/12/30 14:15:28;;;;;;;;;;;;;;;-11.04;59.43;97631.84;6296695;28;20381;-69
2022/12/30 14:18:39;;;;;;;;;;;;;;;-11.11;59.60;97629.94;6285790;28;20309;-69
2022/12/30 14:21:45;;;;;;;;;;;;;;;-11.07;59.65;97631.75;6296386;28;19920;-68
2022/12/30 14:24:49;;;;;;;;;;;;;;;-11.01;59.17;97637.06;6295591;28;19924;-68
2022/12/30 14:28:05;;;;;;;;;;;;;;;-11.01;59.44;97626.88;6295754;28;19919;-69
2022/12/30 14:31:22;;;;;;;;;;;;;;;-11.04;59.37;97631.84;6296118;28;19920;-68
2022/12/30 14:34:44;;;;;;;;;;;;;;;-11.08;59.52;97641.06;6295990;28;20390;-68
2022/12/30 14:37:45;;;;;;;;;;;;;;;-11.10;59.53;97641.81;6295897;28;19920;-68
2022/12/30 14:41:00;;;;;;;;;;;;;;;-11.10;59.70;97631.66;6296071;28;19943;-68
2022/12/30 14:44:04;;;;;;;;;;;;;;;-11.15;59.85;97633.19;6296180;28;19927;-69
2022/12/30 14:47:08;;;;;;;;;;;;;;;-11.14;59.88;97629.84;6295712;28;19920;-68
2022/12/30 14:50:16;;;;;;;;;;;;;;;-11.18;59.84;97628.00;6296102;28;19920;-68
2022/12/30 14:53:19;;;;;;;;;;;;;;;-11.18;59.70;97630.56;6296087;28;19920;-69
2022/12/30 14:56:21;;;;;;;;;;;;;;;-11.19;60.14;97631.38;6294049;28;19927;-68
2022/12/30 14:59:24;;;;;;;;;;;;;;;-11.19;59.90;97631.38;6294236;28;19921;-69
2022/12/30 15:02:31;;;;;;;;;;;;;;;-11.12;59.92;97633.31;6295691;28;19932;-69
2022/12/30 15:05:34;;;;;;;;;;;;;;;-11.17;60.07;97645.00;6295425;28;19974;-68
2022/12/30 15:08:41;;;;;;;;;;;;;;;-11.20;60.17;97638.13;6295737;28;19920;-69
2022/12/30 15:11:47;;;;;;;;;;;;;;;-11.18;60.14;97633.09;6295162;28;19927;-69
2022/12/30 15:14:51;;;;;;;;;;;;;;;-11.18;60.20;97633.97;6295533;28;19920;-69
2022/12/30 15:17:56;;;;;;;;;;;;;;;-11.22;60.48;97631.28;6295713;28;19978;-68
2022/12/30 15:21:16;;;;;;;;;;;;;;;-11.22;60.36;97638.91;6295393;28;19920;-68
2022/12/30 15:24:20;;;;;;;;;;;;;;;-11.22;60.09;97631.28;6295476;28;19920;-69
2022/12/30 15:27:25;;;;;;;;;;;;;;;-11.32;60.16;97635.22;6295151;28;19927;-68
2022/12/30 15:30:26;;;;;;;;;;;;;;;-11.31;60.20;97632.72;6295231;28;20065;-69
2022/12/30 15:33:29;;;;;;;;;;;;;;;-11.28;60.23;97636.16;6295283;28;20375;-68
2022/12/30 15:36:33;;;;;;;;;;;;;;;-11.33;60.26;97641.94;6298838;28;19916;-68
2022/12/30 15:39:46;;;;;;;;;;;;;;;-11.35;60.34;97633.44;6299522;28;19920;-69
2022/12/30 15:42:50;;;;;;;;;;;;;;;-11.46;60.43;97628.78;6299639;28;20294;-69
2022/12/30 15:45:57;;;;;;;;;;;;;;;-11.49;60.46;97632.13;6299968;28;19923;-69
2022/12/30 15:49:15;;;;;;;;;;;;;;;-11.49;60.55;97632.13;6299755;28;19920;-68
2022/12/30 15:52:18;;;;;;;;;;;;;;;-11.51;60.55;97631.19;6299818;28;20041;-68
2022/12/30 15:55:22;;;;;;;;;;;;;;;-11.48;60.72;97631.28;6299578;28;19930;-68
2022/12/30 15:59:03;;;;;;;;;;;;;;;-11.46;60.87;97626.25;6299273;28;19921;-69
2022/12/30 16:02:15;;;;;;;;;;;;;;;-11.47;60.71;97638.09;6225811;28;19921;-69
2022/12/30 16:05:30;;;;;;;;;;;;;;;-11.48;60.58;97638.91;6297255;28;19926;-68
2022/12/30 16:08:34;;;;;;;;;;;;;;;-11.60;60.83;97644.44;6298749;28;19920;-68
2022/12/30 16:11:38;;;;;;;;;;;;;;;-11.67;60.61;97642.50;6299461;28;20507;-68
2022/12/30 16:14:39;;;;;;;;;;;;;;;-11.72;61.16;97638.06;6299550;28;20065;-68
2022/12/30 16:17:46;;;;;;;;;;;;;;;-11.80;61.14;97630.22;6299293;28;20278;-68
2022/12/30 16:20:50;;;;;;;;;;;;;;;-11.82;61.31;97631.84;6298544;28;19920;-68
2022/12/30 16:23:56;;;;;;;;;;;;;;;-11.87;61.32;97634.22;6299277;28;20024;-67
2022/12/30 16:27:02;;;;;;;;;;;;;;;-11.94;61.00;97637.38;6296909;28;19920;-68
2022/12/30 16:30:43;;;;;;;;;;;;;;;-12.03;60.85;97647.19;6298909;28;20294;-68
2022/12/30 16:33:47;;;;;;;;;;;;;;;-12.14;61.10;97640.88;6221980;28;20346;-69
2022/12/30 16:36:53;;;;;;;;;;;;;;;-12.21;61.49;97638.13;6222120;28;19924;-69
2022/12/30 16:40:02;;;;;;;;;;;;;;;-12.28;61.53;97636.19;6299002;28;19928;-68
2022/12/30 16:43:11;;;;;;;;;;;;;;;-12.21;61.65;97627.13;6298856;28;19920;-68
2022/12/30 16:46:17;;;;;;;;;;;;;;;-12.27;61.58;97632.84;6298266;28;19927;-69
2022/12/30 16:49:26;;;;;;;;;;;;;;;-12.44;61.55;97633.88;6298260;28;20393;-68